Time;durP1;ratioP1;P1;durP2;ratioP2;P2;SDS_P1;SDS_P2;PMS_P1;PMS_P2;Temp;Humidity;BMP_temperature;BMP_pressure;BME280_temperature;BME280_humidity;BME280_pressure;Samples;Min_cycle;Max_cycle;Signal;HPM_P1;HPM_P2
2021/06/30 00:01:03;;;;;;;8.17;7.53;;;15.60;99.90;;;;;;5012524;28;20176;-68
2021/06/30 00:03:28;;;;;;;8.07;7.53;;;15.50;99.90;;;;;;5011889;28;20188;-67
2021/06/30 00:05:54;;;;;;;8.30;7.60;;;15.60;99.90;;;;;;5011991;28;20183;-68
2021/06/30 00:08:20;;;;;;;8.33;7.73;;;15.60;99.90;;;;;;5011565;28;20728;-68
2021/06/30 00:10:46;;;;;;;9.10;8.30;;;15.70;99.90;;;;;;5012330;28;20208;-68
2021/06/30 00:13:12;;;;;;;9.40;8.60;;;15.70;99.90;;;;;;5012226;28;20176;-68
2021/06/30 00:15:39;;;;;;;8.57;7.97;;;15.60;99.90;;;;;;5012018;28;20609;-68
2021/06/30 00:18:05;;;;;;;9.53;8.63;;;15.50;99.90;;;;;;5011562;28;20212;-68
2021/06/30 00:20:31;;;;;;;9.43;8.63;;;15.50;99.90;;;;;;5010915;28;20259;-69
2021/06/30 00:22:56;;;;;;;9.40;8.53;;;15.50;99.90;;;;;;5012199;28;20191;-68
2021/06/30 00:25:22;;;;;;;9.10;8.30;;;15.30;99.90;;;;;;5011870;28;20180;-67
2021/06/30 00:27:49;;;;;;;8.37;7.67;;;15.30;99.90;;;;;;5011842;28;20200;-68
2021/06/30 00:30:16;;;;;;;8.50;7.70;;;15.20;99.90;;;;;;5011647;28;20270;-67
2021/06/30 00:32:43;;;;;;;8.13;7.40;;;15.20;99.90;;;;;;5011942;28;20215;-68
2021/06/30 00:35:09;;;;;;;9.03;8.43;;;15.20;99.90;;;;;;5011775;28;20188;-68
2021/06/30 00:37:35;;;;;;;8.97;8.17;;;15.20;99.90;;;;;;5011388;28;20615;-68
2021/06/30 00:40:00;;;;;;;9.23;8.53;;;15.20;99.90;;;;;;5011826;28;20180;-67
2021/06/30 00:42:30;;;;;;;8.47;7.87;;;15.10;99.90;;;;;;5011717;28;20164;-67
2021/06/30 00:44:56;;;;;;;8.60;7.80;;;15.10;99.90;;;;;;5017476;28;20180;-68
2021/06/30 00:47:22;;;;;;;8.60;8.00;;;15.10;99.90;;;;;;5017768;28;20183;-68
2021/06/30 00:49:49;;;;;;;8.40;7.80;;;15.10;99.90;;;;;;5017121;28;20191;-68
2021/06/30 00:52:15;;;;;;;9.53;8.80;;;15.00;99.90;;;;;;5018216;28;20612;-69
2021/06/30 00:54:40;;;;;;;8.03;7.43;;;15.00;99.90;;;;;;5018114;28;20184;-68
2021/06/30 00:57:09;;;;;;;8.27;7.70;;;15.00;99.90;;;;;;5018325;28;20194;-67
2021/06/30 00:59:36;;;;;;;8.20;7.50;;;15.00;99.90;;;;;;5018240;28;20199;-67
2021/06/30 01:02:02;;;;;;;8.40;7.67;;;14.90;99.90;;;;;;5018206;28;20164;-68
2021/06/30 01:04:28;;;;;;;8.63;7.83;;;14.90;99.90;;;;;;5017895;28;20657;-68
2021/06/30 01:06:53;;;;;;;7.97;7.27;;;14.90;99.90;;;;;;5018119;28;20242;-68
2021/06/30 01:09:19;;;;;;;9.00;8.20;;;14.90;99.90;;;;;;5016491;28;20246;-68
2021/06/30 01:11:45;;;;;;;8.20;7.50;;;14.90;99.90;;;;;;5018274;28;20180;-67
2021/06/30 01:14:11;;;;;;;9.70;7.67;;;15.00;99.90;;;;;;5016793;28;20540;-67
2021/06/30 01:16:36;;;;;;;8.90;8.30;;;15.00;99.90;;;;;;5016961;28;20172;-67
2021/06/30 01:19:02;;;;;;;10.00;9.27;;;15.00;99.90;;;;;;5017805;28;20212;-67
2021/06/30 01:21:28;;;;;;;8.40;7.70;;;15.10;99.90;;;;;;5018114;28;20195;-68
2021/06/30 01:23:53;;;;;;;8.50;7.80;;;15.10;99.90;;;;;;5021858;28;20175;-68
2021/06/30 01:26:19;;;;;;;8.23;7.53;;;15.20;99.90;;;;;;5037656;28;20190;-68
2021/06/30 01:28:45;;;;;;;8.17;7.57;;;15.20;99.90;;;;;;5038630;28;20194;-68
2021/06/30 01:31:11;;;;;;;8.67;7.90;;;15.20;99.90;;;;;;5025842;28;20211;-67
2021/06/30 01:33:37;;;;;;;8.87;7.87;;;15.20;99.90;;;;;;5017791;28;20270;-67
2021/06/30 01:36:03;;;;;;;10.07;9.27;;;15.10;99.90;;;;;;5017899;28;20721;-67
2021/06/30 01:38:30;;;;;;;9.77;9.07;;;15.00;99.90;;;;;;5017262;28;20223;-68
2021/06/30 01:40:57;;;;;;;8.67;7.73;;;15.00;99.90;;;;;;5018089;28;20630;-67
2021/06/30 01:43:23;;;;;;;9.17;8.47;;;15.00;99.90;;;;;;5017661;28;20203;-67
2021/06/30 01:45:51;;;;;;;11.23;8.33;;;14.90;99.90;;;;;;5017375;28;20180;-68
2021/06/30 01:48:17;;;;;;;9.40;8.50;;;14.90;99.90;;;;;;5017521;28;20591;-68
2021/06/30 01:50:42;;;;;;;8.13;7.33;;;14.90;99.90;;;;;;5017945;28;20180;-67
2021/06/30 01:53:08;;;;;;;8.23;7.53;;;14.90;99.90;;;;;;5017747;28;20661;-67
2021/06/30 01:55:35;;;;;;;11.07;10.17;;;14.90;99.90;;;;;;5015014;28;20268;-67
2021/06/30 01:58:01;;;;;;;9.93;9.03;;;14.90;99.90;;;;;;5014283;28;20207;-67
2021/06/30 02:00:26;;;;;;;8.87;8.17;;;14.90;99.90;;;;;;5014473;28;20229;-67
2021/06/30 02:02:52;;;;;;;9.03;8.23;;;14.90;99.90;;;;;;5014494;28;20665;-67
2021/06/30 02:05:22;;;;;;;8.43;7.73;;;14.90;99.90;;;;;;5014622;28;20338;-68
2021/06/30 02:07:51;;;;;;;8.90;8.20;;;15.00;99.90;;;;;;5013859;28;20219;-68
2021/06/30 02:10:18;;;;;;;8.93;8.13;;;14.90;99.90;;;;;;5013745;28;20184;-70
2021/06/30 02:12:44;;;;;;;9.90;8.90;;;14.90;99.90;;;;;;5016344;28;20179;-71
2021/06/30 02:15:16;;;;;;;9.53;8.83;;;14.90;99.90;;;;;;5015285;28;20658;-71
2021/06/30 02:17:42;;;;;;;8.77;8.07;;;14.90;99.90;;;;;;5015305;28;20577;-72
2021/06/30 02:20:10;;;;;;;8.47;7.87;;;14.90;99.90;;;;;;5016525;28;20173;-71
2021/06/30 02:22:38;;;;;;;9.83;8.93;;;14.80;99.90;;;;;;5014349;28;20657;-69
2021/06/30 02:25:07;;;;;;;10.13;9.20;;;14.80;99.90;;;;;;5015914;28;20168;-70
2021/06/30 02:27:32;;;;;;;9.63;8.50;;;14.80;99.90;;;;;;5014774;28;20176;-70
2021/06/30 02:29:58;;;;;;;11.80;8.37;;;14.70;99.90;;;;;;5015623;28;20238;-69
2021/06/30 02:32:24;;;;;;;9.30;8.57;;;14.70;99.90;;;;;;5015845;28;20684;-71
2021/06/30 02:34:50;;;;;;;8.63;8.00;;;14.70;99.90;;;;;;5016020;28;20260;-71
2021/06/30 02:37:15;;;;;;;9.27;8.47;;;14.60;99.90;;;;;;5015133;28;20303;-70
2021/06/30 02:39:41;;;;;;;8.40;7.60;;;14.60;99.90;;;;;;5013421;28;20211;-69
2021/06/30 02:42:07;;;;;;;9.03;8.23;;;14.60;99.90;;;;;;5015691;28;20173;-71
2021/06/30 02:44:32;;;;;;;8.87;8.17;;;14.70;99.90;;;;;;5014815;28;20180;-70
2021/06/30 02:46:59;;;;;;;8.80;8.10;;;14.70;99.90;;;;;;5015036;28;20180;-69
2021/06/30 02:49:25;;;;;;;8.40;7.80;;;14.70;99.90;;;;;;5015328;28;20192;-74
2021/06/30 02:51:50;;;;;;;9.47;8.37;;;14.80;99.90;;;;;;5013872;28;20298;-71
2021/06/30 02:54:16;;;;;;;9.97;9.17;;;14.80;99.90;;;;;;5015158;28;20176;-73
2021/06/30 02:56:42;;;;;;;8.47;7.83;;;14.80;99.90;;;;;;5015093;28;20195;-70
2021/06/30 02:59:08;;;;;;;9.57;8.53;;;14.80;99.90;;;;;;5014215;28;20235;-71
2021/06/30 03:01:33;;;;;;;9.03;8.27;;;14.80;99.90;;;;;;5015259;28;20164;-71
2021/06/30 03:04:00;;;;;;;11.80;8.20;;;14.80;99.90;;;;;;5014983;28;20228;-70
2021/06/30 03:06:26;;;;;;;9.37;8.50;;;14.70;99.90;;;;;;5014323;28;20180;-71
2021/06/30 03:08:52;;;;;;;9.70;8.83;;;14.70;99.90;;;;;;5014981;28;20216;-72
2021/06/30 03:11:18;;;;;;;9.50;8.80;;;14.70;99.90;;;;;;5015337;28;20255;-69
2021/06/30 03:13:43;;;;;;;10.30;9.43;;;14.70;99.90;;;;;;5015190;28;20638;-70
2021/06/30 03:16:09;;;;;;;10.10;9.10;;;14.70;99.90;;;;;;5014695;28;20223;-70
2021/06/30 03:18:35;;;;;;;8.80;8.00;;;14.80;99.90;;;;;;5014466;28;20215;-70
2021/06/30 03:21:00;;;;;;;9.37;8.57;;;14.80;99.90;;;;;;5014808;28;20267;-68
2021/06/30 03:23:26;;;;;;;8.37;7.87;;;14.80;99.90;;;;;;5014985;28;20192;-67
2021/06/30 03:25:52;;;;;;;9.17;8.40;;;14.80;99.90;;;;;;5014527;28;20180;-68
2021/06/30 03:28:18;;;;;;;8.03;7.30;;;14.80;99.90;;;;;;5014545;28;20203;-70
2021/06/30 03:30:43;;;;;;;8.73;8.03;;;14.80;99.90;;;;;;5015347;28;20259;-72
2021/06/30 03:33:10;;;;;;;7.60;7.07;;;14.90;99.90;;;;;;5014839;28;20180;-70
2021/06/30 03:35:36;;;;;;;8.83;8.13;;;14.90;99.90;;;;;;5014940;28;20168;-71
2021/06/30 03:38:02;;;;;;;9.03;8.30;;;14.90;99.90;;;;;;5014565;28;20686;-72
2021/06/30 03:40:27;;;;;;;8.90;8.20;;;14.90;99.90;;;;;;5014462;28;20168;-72
2021/06/30 03:42:53;;;;;;;9.43;8.73;;;14.90;99.90;;;;;;5014649;28;20188;-68
2021/06/30 03:45:19;;;;;;;10.17;8.67;;;14.90;99.90;;;;;;5012698;28;20172;-65
2021/06/30 03:47:44;;;;;;;10.43;9.37;;;14.90;99.90;;;;;;5012290;28;20286;-65
2021/06/30 03:50:10;;;;;;;9.50;8.70;;;14.90;99.90;;;;;;5012329;28;20173;-66
2021/06/30 03:52:36;;;;;;;9.67;8.97;;;14.90;99.90;;;;;;5012547;28;20226;-66
2021/06/30 03:55:02;;;;;;;10.23;9.23;;;14.90;99.90;;;;;;5012354;28;20214;-66
2021/06/30 03:57:27;;;;;;;13.90;9.17;;;14.90;99.90;;;;;;5011954;28;20564;-66
2021/06/30 03:59:53;;;;;;;10.33;9.33;;;14.90;99.90;;;;;;5012265;28;20175;-67
2021/06/30 04:02:19;;;;;;;10.43;9.50;;;14.90;99.90;;;;;;5012344;28;20657;-67
2021/06/30 04:04:44;;;;;;;10.37;9.47;;;15.00;99.90;;;;;;5012250;28;20183;-67
2021/06/30 04:07:11;;;;;;;10.30;9.33;;;15.00;99.90;;;;;;5011803;28;20187;-66
2021/06/30 04:09:37;;;;;;;10.93;10.10;;;15.00;99.90;;;;;;5012100;28;20624;-66
2021/06/30 04:12:03;;;;;;;10.10;9.20;;;15.00;99.90;;;;;;5010693;28;20187;-66
2021/06/30 04:14:29;;;;;;;9.57;8.77;;;15.10;99.90;;;;;;5012087;28;20222;-66
2021/06/30 04:16:55;;;;;;;8.93;8.07;;;15.20;99.90;;;;;;5011760;28;20274;-66
2021/06/30 04:19:21;;;;;;;9.47;8.43;;;15.20;99.90;;;;;;5011352;28;20651;-66
2021/06/30 04:21:48;;;;;;;9.17;8.50;;;15.40;99.90;;;;;;5011917;28;20187;-66
2021/06/30 04:24:13;;;;;;;9.00;8.40;;;15.40;99.90;;;;;;5012117;28;20168;-67
2021/06/30 04:26:39;;;;;;;8.97;8.33;;;15.50;99.90;;;;;;5010158;28;20176;-66
2021/06/30 04:29:05;;;;;;;9.07;8.17;;;15.50;99.90;;;;;;5010555;28;20203;-66
2021/06/30 04:31:31;;;;;;;9.70;8.70;;;15.60;99.90;;;;;;5011900;28;20645;-67
2021/06/30 04:33:57;;;;;;;8.57;7.83;;;15.60;99.90;;;;;;5012020;28;20176;-67
2021/06/30 04:36:23;;;;;;;9.53;8.63;;;15.60;99.90;;;;;;5011407;28;20255;-66
2021/06/30 04:38:48;;;;;;;9.83;9.13;;;15.60;99.90;;;;;;5012062;28;20286;-66
2021/06/30 04:41:14;;;;;;;10.90;9.83;;;15.60;99.90;;;;;;5011604;28;20279;-66
2021/06/30 04:43:40;;;;;;;12.23;11.07;;;15.60;99.90;;;;;;5011972;28;21015;-66
2021/06/30 04:46:06;;;;;;;13.27;9.37;;;15.60;99.90;;;;;;5011311;28;20540;-66
2021/06/30 04:48:34;;;;;;;12.07;11.17;;;15.70;99.90;;;;;;5011652;28;20214;-67
2021/06/30 04:50:59;;;;;;;11.93;11.03;;;15.90;99.90;;;;;;5011746;28;20611;-67
2021/06/30 04:53:25;;;;;;;10.83;10.03;;;16.00;99.90;;;;;;5011858;28;20222;-67
2021/06/30 04:55:51;;;;;;;13.33;12.13;;;16.20;99.90;;;;;;5011331;28;20182;-66
2021/06/30 04:58:18;;;;;;;9.50;8.80;;;16.20;99.90;;;;;;5011484;28;20704;-67
2021/06/30 05:00:43;;;;;;;10.20;9.20;;;16.20;99.90;;;;;;5010195;28;20172;-67
2021/06/30 05:03:09;;;;;;;10.00;8.83;;;16.20;99.90;;;;;;5011706;28;20222;-67
2021/06/30 05:05:35;;;;;;;8.80;8.20;;;16.30;99.90;;;;;;5011565;28;20255;-66
2021/06/30 05:08:02;;;;;;;9.57;8.87;;;16.30;99.90;;;;;;5011212;28;20680;-67
2021/06/30 05:10:28;;;;;;;8.57;8.07;;;16.40;99.90;;;;;;5011465;28;20191;-67
2021/06/30 05:12:53;;;;;;;7.97;7.27;;;16.40;99.90;;;;;;5011572;28;20181;-67
2021/06/30 05:15:19;;;;;;;8.93;8.20;;;16.40;99.90;;;;;;5011987;28;20588;-67
2021/06/30 05:17:45;;;;;;;7.50;7.00;;;16.40;99.90;;;;;;5010000;28;20215;-66
2021/06/30 05:20:11;;;;;;;7.10;6.70;;;16.50;99.90;;;;;;5012205;28;20176;-67
2021/06/30 05:22:37;;;;;;;7.70;7.10;;;16.50;99.90;;;;;;5011631;28;20254;-66
2021/06/30 05:25:03;;;;;;;7.73;7.23;;;16.50;99.90;;;;;;5012675;28;20626;-66
2021/06/30 05:27:29;;;;;;;7.50;6.90;;;16.50;99.90;;;;;;5025670;28;20207;-65
2021/06/30 05:29:54;;;;;;;7.77;7.27;;;16.50;99.90;;;;;;5027636;28;20168;-67
2021/06/30 05:32:20;;;;;;;7.53;7.10;;;16.60;99.90;;;;;;5020357;28;20202;-66
2021/06/30 05:34:46;;;;;;;7.83;7.33;;;16.60;99.90;;;;;;5015183;28;20172;-66
2021/06/30 05:37:11;;;;;;;7.90;7.40;;;16.70;99.90;;;;;;5014502;28;20207;-67
2021/06/30 05:39:37;;;;;;;7.40;6.70;;;16.70;99.90;;;;;;5014898;28;20192;-66
2021/06/30 05:42:03;;;;;;;8.10;7.60;;;16.90;99.90;;;;;;5014784;28;20183;-67
2021/06/30 05:44:28;;;;;;;10.50;9.90;;;17.00;99.90;;;;;;5014928;28;20169;-66
2021/06/30 05:46:54;;;;;;;6.57;6.10;;;17.10;99.90;;;;;;5014455;28;20263;-67
2021/06/30 05:49:19;;;;;;;7.10;6.60;;;17.20;99.90;;;;;;5015152;28;20202;-67
2021/06/30 05:51:45;;;;;;;6.50;6.00;;;17.40;99.90;;;;;;5014595;28;20184;-67
2021/06/30 05:54:11;;;;;;;5.83;5.30;;;17.80;99.90;;;;;;5015030;28;20202;-67
2021/06/30 05:56:38;;;;;;;6.00;5.60;;;18.40;99.90;;;;;;5014257;28;20645;-66
2021/06/30 05:59:05;;;;;;;6.37;6.07;;;19.00;99.90;;;;;;5014613;28;20581;-67
2021/06/30 06:01:31;;;;;;;6.80;6.40;;;19.60;99.90;;;;;;5014650;28;20176;-67
2021/06/30 06:03:56;;;;;;;6.93;6.53;;;19.90;99.90;;;;;;5014686;28;20183;-66
2021/06/30 06:06:22;;;;;;;6.60;5.97;;;20.00;99.90;;;;;;5014126;28;20168;-67
2021/06/30 06:08:48;;;;;;;6.50;6.00;;;19.80;99.90;;;;;;5014227;28;20214;-66
2021/06/30 06:11:13;;;;;;;6.83;6.50;;;19.80;99.90;;;;;;5012196;28;20204;-66
2021/06/30 06:13:40;;;;;;;7.90;7.13;;;19.60;99.90;;;;;;5014187;28;20708;-67
2021/06/30 06:16:08;;;;;;;6.97;6.57;;;19.40;99.90;;;;;;5014443;28;20638;-66
2021/06/30 06:18:34;;;;;;;7.77;7.07;;;19.30;99.90;;;;;;5013946;28;20697;-66
2021/06/30 06:21:00;;;;;;;7.47;6.87;;;19.20;99.90;;;;;;5014285;28;20231;-66
2021/06/30 06:23:25;;;;;;;8.47;7.67;;;19.10;99.90;;;;;;5014005;28;20263;-66
2021/06/30 06:25:51;;;;;;;7.90;7.17;;;18.90;99.90;;;;;;5013968;28;20610;-66
2021/06/30 06:28:17;;;;;;;9.17;8.33;;;18.90;99.90;;;;;;5013902;28;20207;-66
2021/06/30 06:30:42;;;;;;;9.67;8.90;;;18.80;99.90;;;;;;5013872;28;20203;-66
2021/06/30 06:33:08;;;;;;;9.00;8.30;;;18.70;99.90;;;;;;5013723;28;20184;-66
2021/06/30 06:35:35;;;;;;;9.53;8.63;;;18.60;99.90;;;;;;5013891;28;20263;-66
2021/06/30 06:38:01;;;;;;;7.80;7.20;;;18.30;99.90;;;;;;5013270;28;20212;-67
2021/06/30 06:40:27;;;;;;;7.70;7.10;;;18.00;99.90;;;;;;5013804;28;20764;-66
2021/06/30 06:42:53;;;;;;;7.00;6.50;;;17.80;99.90;;;;;;5012686;28;20259;-67
2021/06/30 06:45:18;;;;;;;6.70;6.30;;;17.50;99.90;;;;;;5013776;28;20184;-66
2021/06/30 06:47:44;;;;;;;7.03;6.63;;;17.30;99.90;;;;;;5013502;28;20196;-66
2021/06/30 06:50:10;;;;;;;9.13;6.93;;;17.30;99.90;;;;;;5013948;28;20230;-66
2021/06/30 06:52:36;;;;;;;6.63;6.13;;;17.30;99.90;;;;;;5013457;28;20226;-66
2021/06/30 06:55:03;;;;;;;7.23;6.70;;;17.10;99.90;;;;;;4995755;28;20644;-66
2021/06/30 06:57:30;;;;;;;7.17;6.67;;;17.10;99.90;;;;;;5013043;28;20716;-66
2021/06/30 06:59:55;;;;;;;7.73;7.17;;;17.10;99.90;;;;;;5013433;28;20231;-66
2021/06/30 07:02:21;;;;;;;7.20;6.60;;;17.10;99.90;;;;;;5011951;28;20593;-66
2021/06/30 07:04:47;;;;;;;7.13;6.73;;;17.00;99.90;;;;;;5013400;28;20168;-66
2021/06/30 07:07:13;;;;;;;6.43;6.03;;;17.10;99.90;;;;;;5012891;28;20545;-66
2021/06/30 07:09:40;;;;;;;7.27;6.77;;;17.00;99.90;;;;;;5012256;28;20262;-66
2021/06/30 07:12:06;;;;;;;6.50;6.10;;;17.00;99.90;;;;;;5013009;28;20581;-67
2021/06/30 07:14:31;;;;;;;5.90;5.60;;;17.10;99.90;;;;;;5013090;28;20179;-66
2021/06/30 07:16:57;;;;;;;6.17;5.67;;;17.30;99.90;;;;;;5012267;28;20169;-65
2021/06/30 07:19:23;;;;;;;5.87;5.47;;;17.50;99.90;;;;;;5011776;28;20222;-66
2021/06/30 07:21:48;;;;;;;6.03;5.63;;;17.60;99.90;;;;;;5012873;28;20199;-66
2021/06/30 07:24:14;;;;;;;6.07;5.70;;;17.80;99.90;;;;;;5013094;28;20689;-67
2021/06/30 07:26:39;;;;;;;5.73;5.43;;;18.00;99.90;;;;;;5012484;28;20558;-66
2021/06/30 07:29:09;;;;;;;5.63;5.33;;;18.10;99.90;;;;;;5012760;28;20267;-65
2021/06/30 07:31:35;;;;;;;5.10;4.80;;;18.30;99.90;;;;;;5012598;28;20203;-66
2021/06/30 07:34:00;;;;;;;5.60;5.30;;;18.30;99.90;;;;;;5012662;28;20200;-67
2021/06/30 07:36:26;;;;;;;5.60;5.23;;;18.40;99.90;;;;;;5012377;28;20172;-66
2021/06/30 07:38:51;;;;;;;5.80;5.50;;;18.50;99.90;;;;;;5012550;28;20696;-66
2021/06/30 07:41:17;;;;;;;5.60;5.20;;;18.80;99.90;;;;;;5012591;28;20259;-66
2021/06/30 07:43:43;;;;;;;5.50;5.20;;;18.80;99.90;;;;;;5012571;28;20179;-66
2021/06/30 07:46:09;;;;;;;5.70;5.40;;;18.90;99.90;;;;;;5012374;28;20207;-66
2021/06/30 07:48:34;;;;;;;5.57;5.27;;;19.00;99.90;;;;;;5012446;28;20195;-65
2021/06/30 07:51:00;;;;;;;6.17;5.87;;;19.00;99.90;;;;;;5012402;28;20260;-66
2021/06/30 07:53:26;;;;;;;5.57;5.37;;;19.10;99.90;;;;;;5011535;28;20184;-67
2021/06/30 07:55:51;;;;;;;6.10;5.80;;;19.40;99.90;;;;;;5012184;28;20666;-66
2021/06/30 07:58:19;;;;;;;6.30;6.00;;;19.50;99.90;;;;;;5012481;28;20204;-66
2021/06/30 08:00:45;;;;;;;5.50;5.27;;;19.70;99.90;;;;;;5012044;28;20311;-66
2021/06/30 08:03:10;;;;;;;6.37;5.97;;;19.80;99.90;;;;;;5012224;28;20682;-66
2021/06/30 08:05:36;;;;;;;5.18;4.97;;;19.90;99.90;;;;;;5011765;28;20184;-66
2021/06/30 08:08:02;;;;;;;6.47;6.17;;;19.90;99.90;;;;;;5012074;28;20207;-66
2021/06/30 08:10:27;;;;;;;5.67;5.37;;;20.20;99.90;;;;;;5012127;28;20194;-67
2021/06/30 08:12:53;;;;;;;6.07;5.77;;;20.30;99.90;;;;;;5011491;28;20181;-66
2021/06/30 08:15:18;;;;;;;6.30;5.80;;;20.40;99.90;;;;;;5012127;28;20223;-66
2021/06/30 08:17:46;;;;;;;6.13;5.63;;;20.30;99.90;;;;;;5011715;28;20235;-67
2021/06/30 08:20:12;;;;;;;4.83;4.63;;;20.20;99.90;;;;;;5012085;28;20169;-67
2021/06/30 08:22:37;;;;;;;5.20;5.00;;;19.90;99.90;;;;;;5011974;28;20248;-66
2021/06/30 08:25:04;;;;;;;5.03;4.77;;;19.80;99.90;;;;;;5012158;28;20247;-66
2021/06/30 08:27:29;;;;;;;5.70;5.40;;;20.00;99.90;;;;;;5012348;28;20176;-67
2021/06/30 08:29:56;;;;;;;5.73;5.27;;;20.00;99.90;;;;;;5024514;28;20607;-66
2021/06/30 08:32:25;;;;;;;6.00;5.70;;;20.10;99.90;;;;;;5024804;28;20192;-66
2021/06/30 08:34:51;;;;;;;6.43;6.03;;;20.00;99.90;;;;;;5013970;28;20637;-66
2021/06/30 08:37:19;;;;;;;7.10;6.80;;;19.70;99.90;;;;;;5011518;28;20251;-66
2021/06/30 08:39:45;;;;;;;6.40;6.10;;;19.60;99.90;;;;;;5011839;28;20199;-66
2021/06/30 08:42:11;;;;;;;6.50;6.20;;;19.50;99.90;;;;;;5011817;28;20538;-66
2021/06/30 08:44:36;;;;;;;5.97;5.67;;;19.30;99.90;;;;;;5011825;28;20164;-66
2021/06/30 08:47:02;;;;;;;5.43;5.20;;;19.30;99.90;;;;;;5010320;28;20179;-70
2021/06/30 08:49:29;;;;;;;5.60;5.30;;;19.30;99.90;;;;;;5009841;28;20746;-66
2021/06/30 08:51:56;;;;;;;5.30;5.10;;;19.40;99.90;;;;;;5011577;28;20282;-66
2021/06/30 08:54:23;;;;;;;5.57;5.07;;;19.60;99.90;;;;;;5011702;28;20275;-66
2021/06/30 08:56:51;;;;;;;6.00;5.70;;;19.90;99.90;;;;;;5011083;28;20227;-67
2021/06/30 08:59:17;;;;;;;6.30;6.00;;;20.00;99.90;;;;;;5013538;28;20211;-66
2021/06/30 09:01:44;;;;;;;5.60;5.30;;;20.10;99.90;;;;;;5031394;28;20168;-66
2021/06/30 09:04:12;;;;;;;5.53;5.13;;;20.50;99.90;;;;;;5031181;28;20174;-66
2021/06/30 09:06:39;;;;;;;5.30;5.00;;;21.00;99.90;;;;;;5035076;28;20221;-66
2021/06/30 09:09:13;;;;;;;4.85;4.65;;;21.50;99.90;;;;;;5035144;28;20211;-66
2021/06/30 09:11:39;;;;;;;4.30;4.10;;;22.30;99.90;;;;;;5034493;28;20837;-67
2021/06/30 09:14:23;;;;;;;3.80;3.70;;;22.70;99.90;;;;;;5034555;28;20171;-66
2021/06/30 09:17:15;;;;;;;4.20;4.00;;;22.70;99.90;;;;;;5032641;28;20229;-66
2021/06/30 09:19:46;;;;;;;4.65;4.45;;;22.50;99.90;;;;;;5035124;28;20222;-66
2021/06/30 09:22:12;;;;;;;4.18;3.97;;;22.30;99.90;;;;;;5035145;28;20301;-66
2021/06/30 09:24:38;;;;;;;4.47;4.28;;;22.00;99.90;;;;;;5034892;28;20258;-67
2021/06/30 09:27:04;;;;;;;4.22;4.03;;;21.80;99.90;;;;;;5034769;28;20163;-66
2021/06/30 09:29:31;;;;;;;5.20;4.90;;;21.50;99.90;;;;;;5033558;28;20687;-67
2021/06/30 09:31:56;;;;;;;5.10;4.90;;;21.30;99.90;;;;;;5035064;28;20174;-66
2021/06/30 09:34:24;;;;;;;6.07;5.78;;;21.20;99.90;;;;;;5020666;28;20176;-67
2021/06/30 09:37:02;;;;;;;5.22;4.93;;;21.40;99.90;;;;;;5028683;28;20172;-65
2021/06/30 09:39:29;;;;;;;5.30;5.10;;;21.20;99.90;;;;;;5032133;28;20253;-66
2021/06/30 09:42:06;;;;;;;5.57;5.37;;;21.00;99.90;;;;;;5014728;28;20219;-67
2021/06/30 09:44:32;;;;;;;5.97;5.68;;;20.80;99.90;;;;;;5014742;28;20178;-67
2021/06/30 09:46:58;;;;;;;5.35;5.15;;;20.90;99.90;;;;;;5014442;28;20568;-67
2021/06/30 09:49:26;;;;;;;5.43;5.22;;;21.00;99.90;;;;;;5013798;28;20291;-66
2021/06/30 09:52:17;;;;;;;6.07;5.78;;;20.80;99.90;;;;;;5014731;28;20191;-66
2021/06/30 09:54:45;;;;;;;5.90;5.70;;;20.80;99.90;;;;;;5014367;28;20180;-66
2021/06/30 09:57:13;;;;;;;6.03;5.73;;;20.50;99.90;;;;;;4994890;28;20251;-66
2021/06/30 09:59:43;;;;;;;4.93;4.73;;;20.20;99.90;;;;;;4994734;28;20197;-66
2021/06/30 10:02:22;;;;;;;5.60;5.30;;;20.10;99.90;;;;;;5014539;28;20239;-66
2021/06/30 10:04:59;;;;;;;6.00;5.80;;;20.30;99.90;;;;;;5013784;28;20188;-66
2021/06/30 10:07:30;;;;;;;5.80;5.40;;;20.60;99.90;;;;;;5014210;28;20184;-66
2021/06/30 10:09:55;;;;;;;5.10;4.90;;;20.80;99.90;;;;;;5014624;28;20630;-66
2021/06/30 10:12:24;;;;;;;5.67;5.37;;;20.60;99.90;;;;;;5014501;28;20207;-66
2021/06/30 10:14:50;;;;;;;5.93;5.53;;;20.20;99.90;;;;;;5013361;28;20173;-66
2021/06/30 10:17:16;;;;;;;5.10;4.90;;;19.90;99.90;;;;;;5012951;28;20249;-66
2021/06/30 10:19:46;;;;;;;5.40;5.20;;;19.80;99.90;;;;;;5014107;28;20223;-67
2021/06/30 10:22:13;;;;;;;5.40;5.20;;;19.80;99.90;;;;;;5014304;28;20168;-67
2021/06/30 10:24:39;;;;;;;6.03;5.73;;;19.90;99.90;;;;;;5014178;28;20176;-67
2021/06/30 10:27:06;;;;;;;6.17;5.90;;;19.90;99.90;;;;;;5013830;28;20561;-66
2021/06/30 10:29:35;;;;;;;5.63;5.43;;;19.90;99.90;;;;;;5013941;28;20273;-67
2021/06/30 10:32:22;;;;;;;6.40;6.10;;;20.20;99.90;;;;;;5014076;28;20176;-67
2021/06/30 10:34:54;;;;;;;5.67;5.47;;;20.30;99.90;;;;;;5013898;28;20164;-67
2021/06/30 10:37:50;;;;;;;5.72;5.47;;;20.60;99.90;;;;;;5012284;28;20222;-67
2021/06/30 10:40:17;;;;;;;4.90;4.70;;;21.60;99.90;;;;;;5013449;28;20212;-65
2021/06/30 10:42:46;;;;;;;4.38;4.18;;;22.50;99.90;;;;;;5013621;28;20168;-66
2021/06/30 10:45:18;;;;;;;4.10;3.90;;;23.00;99.90;;;;;;5012586;28;20176;-66
2021/06/30 10:47:55;;;;;;;4.35;4.15;;;23.30;99.90;;;;;;5012495;28;20196;-66
2021/06/30 10:50:27;;;;;;;4.45;4.25;;;23.20;99.90;;;;;;5013577;28;20176;-66
2021/06/30 10:53:22;;;;;;;4.15;3.97;;;23.30;99.90;;;;;;5013647;28;20549;-66
2021/06/30 10:55:53;;;;;;;4.10;3.90;;;23.10;99.90;;;;;;5012667;28;20668;-66
2021/06/30 10:58:27;;;;;;;4.18;3.97;;;23.10;99.90;;;;;;5013364;28;20212;-66
2021/06/30 11:00:59;;;;;;;4.30;4.10;;;22.90;99.90;;;;;;5013003;28;20281;-66
2021/06/30 11:03:46;;;;;;;5.88;5.63;;;22.10;99.90;;;;;;5013203;28;20734;-66
2021/06/30 11:06:17;;;;;;;4.63;4.43;;;21.30;99.90;;;;;;4994003;28;20176;-65
2021/06/30 11:08:44;;;;;;;5.45;5.25;;;21.30;99.90;;;;;;5013028;28;20211;-66
2021/06/30 11:11:12;;;;;;;5.30;5.10;;;21.30;99.90;;;;;;5012381;28;20218;-66
2021/06/30 11:13:53;;;;;;;4.60;4.40;;;21.30;99.90;;;;;;5013157;28;20234;-66
2021/06/30 11:16:50;;;;;;;4.40;4.20;;;21.50;99.90;;;;;;5011973;28;20516;-66
2021/06/30 11:19:18;;;;;;;4.43;4.23;;;21.60;99.90;;;;;;4988766;28;20216;-65
2021/06/30 11:21:46;;;;;;;4.78;4.57;;;21.80;99.90;;;;;;4996719;28;20873;-65
2021/06/30 11:24:41;;;;;;;4.85;4.65;;;21.90;99.90;;;;;;5012419;28;20240;-66
2021/06/30 11:27:17;;;;;;;4.80;4.60;;;21.80;99.90;;;;;;5011991;28;20172;-65
2021/06/30 11:29:51;;;;;;;5.15;4.95;;;21.80;99.90;;;;;;5011780;28;20196;-66
2021/06/30 11:35:04;;;;;;;4.87;4.67;;;21.00;99.90;;;;;;5012628;28;20177;-65
2021/06/30 11:37:31;;;;;;;7.83;7.47;;;20.70;99.90;;;;;;5011061;28;20354;-66
2021/06/30 11:40:01;;;;;;;8.00;7.70;;;20.60;99.90;;;;;;5011626;28;20259;-66
2021/06/30 11:42:31;;;;;;;10.67;10.17;;;20.60;99.90;;;;;;5012005;28;20160;-66
2021/06/30 11:44:57;;;;;;;10.83;10.33;;;20.70;99.90;;;;;;5012326;28;20172;-65
2021/06/30 11:47:22;;;;;;;8.70;8.20;;;20.70;99.90;;;;;;5012323;28;20576;-66
2021/06/30 11:49:48;;;;;;;6.20;5.93;;;20.50;99.90;;;;;;5011505;28;20176;-66
2021/06/30 11:52:14;;;;;;;7.37;7.07;;;20.50;99.90;;;;;;5012616;28;20184;-66
2021/06/30 11:54:40;;;;;;;6.60;6.23;;;20.40;99.90;;;;;;5012429;28;20597;-66
2021/06/30 11:57:07;;;;;;;5.97;5.67;;;20.20;99.90;;;;;;5010689;28;20267;-66
2021/06/30 11:59:36;;;;;;;5.30;5.10;;;20.00;99.90;;;;;;5012196;28;20200;-65
2021/06/30 12:02:02;;;;;;;5.20;5.00;;;20.20;99.90;;;;;;5012090;28;20673;-65
2021/06/30 12:04:28;;;;;;;7.00;6.60;;;20.50;99.90;;;;;;5012426;28;20167;-65
2021/06/30 12:06:55;;;;;;;6.67;6.37;;;20.60;99.90;;;;;;5011981;28;20684;-65
2021/06/30 12:09:29;;;;;;;6.30;6.00;;;20.60;99.90;;;;;;5012177;28;20206;-66
2021/06/30 12:12:09;;;;;;;7.63;7.33;;;20.60;99.90;;;;;;5016094;28;20726;-66
2021/06/30 12:14:43;;;;;;;6.43;6.13;;;20.50;99.90;;;;;;5018421;28;20733;-66
2021/06/30 12:17:11;;;;;;;8.47;8.07;;;20.60;99.90;;;;;;5011596;28;20180;-66
2021/06/30 12:19:50;;;;;;;7.40;7.10;;;20.80;99.90;;;;;;5011810;28;20196;-66
2021/06/30 12:22:26;;;;;;;5.97;5.67;;;20.90;99.90;;;;;;5011951;28;20263;-66
2021/06/30 12:24:55;;;;;;;6.60;6.30;;;20.80;99.90;;;;;;5011862;28;20259;-66
2021/06/30 12:27:20;;;;;;;5.70;5.40;;;20.30;99.90;;;;;;5011601;28;20219;-66
2021/06/30 12:29:54;;;;;;;7.13;6.73;;;20.00;99.90;;;;;;5011723;28;20222;-65
2021/06/30 12:32:20;;;;;;;6.67;6.37;;;20.30;99.90;;;;;;5011921;28;20184;-66
2021/06/30 12:34:47;;;;;;;8.57;8.17;;;20.50;99.90;;;;;;5011841;28;20187;-66
2021/06/30 12:37:23;;;;;;;9.87;9.47;;;20.50;99.90;;;;;;5011244;28;20195;-66
2021/06/30 12:40:10;;;;;;;7.10;6.80;;;20.60;99.90;;;;;;5011268;28;20176;-65
2021/06/30 12:42:49;;;;;;;6.57;6.27;;;20.50;99.90;;;;;;5011500;28;20586;-65
2021/06/30 12:45:17;;;;;;;6.77;6.47;;;20.60;99.90;;;;;;5011684;28;20172;-65
2021/06/30 12:47:55;;;;;;;5.30;5.00;;;21.00;99.90;;;;;;5010010;28;20210;-66
2021/06/30 12:50:34;;;;;;;6.43;6.13;;;21.00;99.90;;;;;;5011545;28;20382;-66